Search for airport 
image banner adimage banner ad
image banner ad

LEMOIX - Moixent

Located in , Spain

ICAO - , IATA -

Data provided by Airmate  

General information

Coordinates: N38°49'4" W0°49'53"
Elevation is 1837 feet MSL.
 
Rated:
View ratings: [VIEW]


View others Airports in Valencia

Operational data

Open for public use
Current time UTC:
Current local time:
Weather at : LEAL - Alicante-Elche ( 64 km )
METAR: LEAL 091330Z 09017KT 9999 FEW065 29/20 Q1015 NOSIG
TAF: TAF AMD LEAL 091349Z 0913/1012 07015KT 9999 FEW020 TX31/1012Z TN25/1006Z TEMPO 0913/0920 FEW050TCU BECMG 0918/0921 05005KT BECMG 1009/1012 09010KT
View NOTAMs / SUP AIP / TFR affecting this airport [VIEW]
Communications frequencies: [VIEW]

Runways:

RWY identifierQFULength (ft)Width (ft)SurfaceLDA (ft)
0613120GRAS
2413120GRAS

Airport contact information

Address: Spain

Satellite view of LEMOIX